createdAt,value
2023-04-02T00:00:19.016Z,100497.08
2023-04-02T00:02:56.474Z,100504.44
2023-04-02T00:08:40.905Z,100514.77
2023-04-02T00:11:13.033Z,100519.95
2023-04-02T00:13:47.697Z,100530.73
2023-04-02T00:16:23.444Z,100531.39
2023-04-02T00:18:57.262Z,100537.52
2023-04-02T00:21:31.252Z,100545.81
2023-04-02T00:24:11.401Z,100551.72
2023-04-02T00:26:44.905Z,100554.77
2023-04-02T00:29:17.215Z,100555.67
2023-04-02T00:31:50.533Z,100566.70
2023-04-02T00:34:24.595Z,100571.76
2023-04-02T00:36:55.398Z,100575.95
2023-04-02T00:39:28.226Z,100573.84
2023-04-02T00:42:05.807Z,100579.49
2023-04-02T00:44:43.251Z,100583.17
2023-04-02T00:47:20.236Z,100589.30
2023-04-02T00:49:55.272Z,100593.21
2023-04-02T00:52:30.350Z,100598.39
2023-04-02T00:55:06.200Z,100603.84
2023-04-02T00:57:37.560Z,100606.69
2023-04-02T01:00:23.711Z,100606.88
2023-04-02T01:03:34.851Z,100613.29
2023-04-02T01:06:11.457Z,100620.73
2023-04-02T01:09:00.333Z,100618.58
2023-04-02T01:11:44.886Z,100627.23
2023-04-02T01:14:26.425Z,100630.98
2023-04-02T01:17:04.692Z,100631.40
2023-04-02T01:20:01.669Z,100639.04
2023-04-02T01:22:36.128Z,100642.64
2023-04-02T01:25:08.520Z,100649.35
2023-04-02T01:27:47.049Z,100656.34
2023-04-02T01:30:18.349Z,100660.02
2023-04-02T01:32:49.032Z,100661.15
2023-04-02T01:35:20.505Z,100663.43
2023-04-02T01:37:56.498Z,100670.04
2023-04-02T01:40:39.667Z,100673.98
2023-04-02T01:43:23.242Z,100677.62
2023-04-02T01:45:54.058Z,100685.33
2023-04-02T01:48:27.528Z,100681.34
2023-04-02T01:51:00.516Z,100687.51
2023-04-02T01:53:33.297Z,100694.27
2023-04-02T01:56:05.035Z,100700.64
2023-04-02T01:58:36.743Z,100706.30
2023-04-02T02:01:13.122Z,100706.98
2023-04-02T02:03:45.987Z,100712.77
2023-04-02T02:06:18.798Z,100719.28
2023-04-02T02:08:52.660Z,100723.25
2023-04-02T02:11:27.558Z,100723.08
2023-04-02T02:14:00.766Z,100737.66
2023-04-02T02:16:33.399Z,100737.42
2023-04-02T02:19:05.841Z,100743.52
2023-04-02T02:21:43.058Z,100748.08
2023-04-02T02:24:20.446Z,100756.14
2023-04-02T02:26:57.657Z,100758.15
2023-04-02T02:29:29.539Z,100760.64
2023-04-02T02:32:01.129Z,100760.41
2023-04-02T02:34:38.944Z,100764.27
2023-04-02T02:37:18.978Z,100768.10
2023-04-02T02:39:55.015Z,100776.65
2023-04-02T02:42:30.299Z,100778.66
2023-04-02T02:45:02.577Z,100782.92
2023-04-02T02:47:36.229Z,100787.90
2023-04-02T02:50:13.433Z,100795.85
2023-04-02T02:52:51.837Z,100796.79
2023-04-02T02:55:27.571Z,100801.91
2023-04-02T02:58:03.606Z,100806.47
2023-04-02T03:00:35.506Z,100806.51
2023-04-02T03:03:09.698Z,100811.13
2023-04-02T03:05:42.111Z,100817.20
2023-04-02T03:08:21.703Z,100816.31
2023-04-02T03:10:57.902Z,100823.17
2023-04-02T03:13:33.138Z,100825.02
2023-04-02T03:16:09.753Z,100832.45
2023-04-02T03:18:45.435Z,100838.09
2023-04-02T03:21:26.962Z,100841.90
2023-04-02T03:24:01.960Z,100847.79
2023-04-02T03:26:39.773Z,100854.36
2023-04-02T03:29:17.317Z,100858.10
2023-04-02T03:31:52.226Z,100861.49
2023-04-02T03:34:28.028Z,100865.95
2023-04-02T03:37:01.283Z,100875.59
2023-04-02T03:39:35.354Z,100875.44
2023-04-02T03:42:14.469Z,100881.48
2023-04-02T03:44:50.764Z,100891.52
2023-04-02T03:47:27.130Z,100892.67
2023-04-02T03:50:01.555Z,100897.81
2023-04-02T03:52:35.573Z,100902.42
2023-04-02T03:55:16.354Z,100909.41
2023-04-02T03:57:55.693Z,100914.45
2023-04-02T04:00:34.584Z,100918.08
2023-04-02T04:03:12.550Z,100925.96
2023-04-02T04:05:48.291Z,100929.55
2023-04-02T04:08:23.387Z,100937.36
2023-04-02T04:10:58.874Z,100938.89
2023-04-02T04:13:36.026Z,100942.34
2023-04-02T04:16:11.172Z,100952.27
2023-04-02T04:18:49.107Z,100955.66
2023-04-02T04:21:31.180Z,100957.38
2023-04-02T04:24:05.913Z,100964.23
2023-04-02T04:26:49.377Z,100966.69
2023-04-02T04:29:34.602Z,100968.36
2023-04-02T04:32:20.752Z,100971.35
2023-04-02T04:34:53.728Z,100978.63
2023-04-02T04:37:33.451Z,100984.08
2023-04-02T04:40:11.789Z,100992.13
2023-04-02T04:42:44.682Z,100996.13
2023-04-02T04:45:32.059Z,100996.63
2023-04-02T04:48:09.270Z,101005.19
2023-04-02T04:50:46.841Z,101008.11
2023-04-02T04:53:21.911Z,101011.04
2023-04-02T04:55:54.234Z,101019.03
2023-04-02T04:58:29.022Z,101022.36
2023-04-02T05:01:05.048Z,101029.52
2023-04-02T05:03:42.277Z,101037.77
2023-04-02T05:06:19.885Z,101042.41
2023-04-02T05:08:54.108Z,101045.63
2023-04-02T05:11:33.229Z,101048.49
2023-04-02T05:14:07.928Z,101050.08
2023-04-02T05:16:44.107Z,101052.09
2023-04-02T05:19:20.402Z,101062.37
2023-04-02T05:21:55.844Z,101067.19
2023-04-02T05:24:48.553Z,101071.30
2023-04-02T05:27:39.239Z,101074.55
2023-04-02T05:30:21.389Z,101084.85
2023-04-02T05:32:56.444Z,101088.60
2023-04-02T05:35:33.088Z,101092.33
2023-04-02T05:38:06.578Z,101100.73
2023-04-02T05:40:41.017Z,101103.58
2023-04-02T05:43:17.508Z,101111.36
2023-04-02T05:45:56.398Z,101109.34
2023-04-02T05:48:32.065Z,101114.30
2023-04-02T05:51:04.914Z,101121.67
2023-04-02T05:53:38.570Z,101125.38
2023-04-02T05:56:17.123Z,101133.05
2023-04-02T05:58:52.467Z,101135.59
2023-04-02T06:01:34.567Z,101144.90
2023-04-02T06:04:14.262Z,101146.00
2023-04-02T06:06:53.484Z,101147.67
2023-04-02T06:09:29.861Z,101157.70
2023-04-02T06:12:13.311Z,101162.48
2023-04-02T06:14:46.397Z,101176.88
2023-04-02T06:17:20.151Z,101162.75
2023-04-02T06:19:52.703Z,101180.04
2023-04-02T06:22:31.898Z,101182.20
2023-04-02T06:25:06.884Z,101187.41
2023-04-02T06:27:39.514Z,101188.02
2023-04-02T06:30:19.768Z,101191.12
2023-04-02T06:32:50.835Z,101197.36
2023-04-02T06:35:21.871Z,101204.45
2023-04-02T06:37:55.545Z,101211.24
2023-04-02T06:40:36.257Z,101215.20
2023-04-02T06:43:14.918Z,101225.69
2023-04-02T06:45:49.850Z,101229.47
2023-04-02T06:48:23.051Z,101229.66
2023-04-02T06:51:00.685Z,101232.22
2023-04-02T06:53:35.733Z,101239.27
2023-04-02T06:56:13.555Z,101245.07
2023-04-02T06:58:44.494Z,101246.91
2023-04-02T07:01:19.295Z,101248.42
2023-04-02T07:03:49.902Z,101257.83
2023-04-02T07:06:22.984Z,101262.96
2023-04-02T07:08:53.612Z,101262.52
2023-04-02T07:11:25.037Z,101269.10
2023-04-02T07:13:55.671Z,101271.95
2023-04-02T07:16:28.626Z,101275.94
2023-04-02T07:19:00.365Z,101280.42
2023-04-02T07:21:31.125Z,101289.86
2023-04-02T07:24:02.230Z,101286.98
2023-04-02T07:26:32.962Z,101290.23
2023-04-02T07:29:03.769Z,101299.10
2023-04-02T07:31:34.313Z,101307.97
2023-04-02T07:34:05.427Z,101309.88
2023-04-02T07:36:36.117Z,101315.72
2023-04-02T07:39:07.269Z,101325.86
2023-04-02T07:41:53.349Z,101324.80
2023-04-02T07:44:24.026Z,101331.81
2023-04-02T07:46:55.329Z,101334.75
2023-04-02T07:49:26.078Z,101337.14
2023-04-02T07:51:56.597Z,101346.97
2023-04-02T07:54:28.252Z,101348.96
2023-04-02T07:56:59.120Z,101354.23
2023-04-02T07:59:30.232Z,101360.73
2023-04-02T08:02:00.719Z,101359.84
2023-04-02T08:04:31.596Z,101367.68
2023-04-02T08:07:02.959Z,101369.92
2023-04-02T08:09:33.450Z,101375.39
2023-04-02T08:12:04.304Z,101373.11
2023-04-02T08:14:34.787Z,101381.64
2023-04-02T08:17:05.732Z,101384.20
2023-04-02T08:19:51.716Z,101390.44
2023-04-02T08:22:25.311Z,101396.83
2023-04-02T08:24:58.222Z,101398.17
2023-04-02T08:27:30.712Z,101406.20
2023-04-02T08:30:02.134Z,101405.17
2023-04-02T08:32:34.568Z,101413.74
2023-04-02T08:35:06.740Z,101421.08
2023-04-02T08:37:37.639Z,101426.71
2023-04-02T08:40:19.344Z,101434.32
2023-04-02T08:43:01.582Z,101440.08
2023-04-02T08:45:44.892Z,101439.08
2023-04-02T08:48:16.981Z,101439.89
2023-04-02T08:50:48.819Z,101446.27
2023-04-02T08:53:22.233Z,101450.50
2023-04-02T08:55:59.928Z,101457.17
2023-04-02T08:58:41.386Z,101453.55
2023-04-02T09:01:20.594Z,101460.48
2023-04-02T09:03:55.120Z,101463.13
2023-04-02T09:06:27.891Z,101472.02
2023-04-02T09:09:00.271Z,101478.30
2023-04-02T09:11:41.233Z,101480.75
2023-04-02T09:14:19.237Z,101489.27
2023-04-02T09:16:54.568Z,101490.83
2023-04-02T09:19:28.279Z,101495.41
2023-04-02T09:22:06.523Z,101492.77
2023-04-02T09:24:38.591Z,101497.66
2023-04-02T09:27:21.995Z,101498.98
2023-04-02T09:29:55.579Z,101506.27
2023-04-02T09:32:46.600Z,101506.08
2023-04-02T09:35:26.074Z,101511.96
2023-04-02T09:38:25.178Z,101519.36
2023-04-02T09:41:02.377Z,101524.14
2023-04-02T09:43:35.761Z,101528.44
2023-04-02T09:46:19.195Z,101527.98
2023-04-02T09:48:54.271Z,101528.77
2023-04-02T09:51:27.686Z,101542.23
2023-04-02T09:54:15.786Z,101539.91
2023-04-02T09:57:02.882Z,101546.44
2023-04-02T09:59:34.500Z,101554.55
2023-04-02T10:02:24.686Z,101558.52
2023-04-02T10:04:57.087Z,101566.63
2023-04-02T10:07:38.033Z,101575.06
2023-04-02T10:10:25.923Z,101577.02
2023-04-02T10:13:02.401Z,101577.97
2023-04-02T10:15:39.010Z,101575.76
2023-04-02T10:18:18.232Z,101585.16
2023-04-02T10:20:53.001Z,101584.52
2023-04-02T10:23:30.393Z,101588.84
2023-04-02T10:26:21.309Z,101587.87
2023-04-02T10:29:08.540Z,101593.65
2023-04-02T10:31:49.288Z,101599.09
2023-04-02T10:34:26.006Z,101601.79
2023-04-02T10:37:01.504Z,101602.23
2023-04-02T10:39:38.983Z,101604.69
2023-04-02T10:42:21.871Z,101607.39
2023-04-02T10:45:01.787Z,101605.27
2023-04-02T10:47:41.835Z,101611.54
2023-04-02T10:50:31.235Z,101614.73
2023-04-02T10:53:13.127Z,101616.66
2023-04-02T10:55:49.556Z,101615.98
2023-04-02T10:58:28.188Z,101619.98
2023-04-02T11:01:04.149Z,101619.93
2023-04-02T11:03:41.885Z,101624.37
2023-04-02T11:06:23.232Z,101627.46
2023-04-02T11:08:59.178Z,101631.31
2023-04-02T11:11:35.554Z,101631.20
2023-04-02T11:14:16.697Z,101631.17
2023-04-02T11:16:50.291Z,101637.88
2023-04-02T11:19:31.884Z,101634.53
2023-04-02T11:22:06.693Z,101638.90
2023-04-02T11:24:48.885Z,101641.82
2023-04-02T11:27:27.010Z,101642.89
2023-04-02T11:30:07.396Z,101642.15
2023-04-02T11:32:44.462Z,101645.40
2023-04-02T11:35:39.158Z,101648.41
2023-04-02T11:38:45.595Z,101651.02
2023-04-02T11:41:38.172Z,101645.95
2023-04-02T11:44:26.272Z,101651.17
2023-04-02T11:47:18.945Z,101655.17
2023-04-02T11:50:06.251Z,101658.36
2023-04-02T11:52:52.918Z,101653.34
2023-04-02T11:55:29.235Z,101663.13
2023-04-02T11:58:21.197Z,101665.35
2023-04-02T12:01:18.342Z,101674.91
2023-04-02T12:04:20.301Z,101671.16
2023-04-02T12:07:02.804Z,101666.80
2023-04-02T12:09:43.904Z,101669.86
2023-04-02T12:12:26.874Z,101671.57
2023-04-02T12:14:59.583Z,101676.08
2023-04-02T12:17:36.213Z,101678.38
2023-04-02T12:20:22.740Z,101683.27
2023-04-02T12:22:55.680Z,101686.77
2023-04-02T12:25:31.571Z,101685.73
2023-04-02T12:28:22.413Z,101691.22
2023-04-02T12:31:03.517Z,101690.52
2023-04-02T12:33:37.477Z,101690.89
2023-04-02T12:36:19.124Z,101690.42
2023-04-02T12:38:53.199Z,101689.86
2023-04-02T12:41:27.310Z,101687.42
2023-04-02T12:44:02.083Z,101682.80
2023-04-02T12:46:35.193Z,101678.58
2023-04-02T12:49:08.501Z,101678.64
2023-04-02T12:51:40.545Z,101681.70
2023-04-02T12:54:16.210Z,101687.37
2023-04-02T12:56:47.475Z,101685.29
2023-04-02T12:59:36.069Z,101689.41
2023-04-02T13:02:22.359Z,101690.85
2023-04-02T13:04:56.458Z,101690.25
2023-04-02T13:07:30.361Z,101691.18
2023-04-02T13:10:04.154Z,101695.52
2023-04-02T13:12:39.699Z,101697.14
2023-04-02T13:15:25.079Z,101700.48
2023-04-02T13:18:19.858Z,101699.11
2023-04-02T13:21:02.968Z,101704.14
2023-04-02T13:23:40.052Z,101705.44
2023-04-02T13:26:23.016Z,101707.06
2023-04-02T13:29:06.850Z,101709.41
2023-04-02T13:31:39.399Z,101712.07
2023-04-02T13:34:11.118Z,101718.27
2023-04-02T13:36:41.739Z,101714.81
2023-04-02T13:39:12.336Z,101718.94
2023-04-02T13:41:45.506Z,101719.42
2023-04-02T13:44:23.890Z,101717.81
2023-04-02T13:46:59.652Z,101715.77
2023-04-02T13:49:31.799Z,101724.61
2023-04-02T13:52:05.548Z,101724.66
2023-04-02T13:54:43.132Z,101721.94
2023-04-02T13:57:16.249Z,101725.01
2023-04-02T13:59:48.722Z,101725.85
2023-04-02T14:02:23.738Z,101727.74
2023-04-02T14:05:03.274Z,101725.34
2023-04-02T14:07:52.694Z,101731.49
2023-04-02T14:10:35.469Z,101734.13
2023-04-02T14:13:24.080Z,101742.37
2023-04-02T14:16:14.239Z,101746.08
2023-04-02T14:19:01.946Z,101748.29
2023-04-02T14:21:37.405Z,101746.75
2023-04-02T14:24:22.446Z,101754.66
2023-04-02T14:27:20.029Z,101753.83
2023-04-02T14:29:58.957Z,101754.59
2023-04-02T14:32:33.434Z,101757.64
2023-04-02T14:35:12.547Z,101760.14
2023-04-02T14:37:51.660Z,101750.46
2023-04-02T14:40:30.638Z,101756.20
2023-04-02T14:43:06.873Z,101751.64
2023-04-02T14:45:57.177Z,101759.80
2023-04-02T14:48:38.196Z,101756.69
2023-04-02T14:51:17.323Z,101765.05
2023-04-02T14:53:55.539Z,101766.95
2023-04-02T14:56:27.036Z,101769.31
2023-04-02T14:59:14.522Z,101769.53
2023-04-02T15:01:46.975Z,101772.80
2023-04-02T15:04:24.869Z,101771.81
2023-04-02T15:06:58.220Z,101770.38
2023-04-02T15:09:35.167Z,101772.48
2023-04-02T15:12:11.142Z,101780.62
2023-04-02T15:14:46.918Z,101782.64
2023-04-02T15:17:18.308Z,101787.98
2023-04-02T15:19:51.047Z,101785.83
2023-04-02T15:22:33.095Z,101792.48
2023-04-02T15:25:17.960Z,101798.48
2023-04-02T15:28:03.724Z,101796.98
2023-04-02T15:30:40.275Z,101801.48
2023-04-02T15:33:47.725Z,101804.89
2023-04-02T15:36:40.380Z,101811.56
2023-04-02T15:39:38.431Z,101816.79
2023-04-02T15:42:19.406Z,101819.79
2023-04-02T15:45:16.165Z,101823.61
2023-04-02T15:47:59.960Z,101823.54
2023-04-02T15:50:45.580Z,101825.41
2023-04-02T15:53:30.535Z,101821.79
2023-04-02T15:56:16.945Z,101827.25
2023-04-02T15:59:02.761Z,101832.34
2023-04-02T16:01:41.734Z,101834.02
2023-04-02T16:04:40.703Z,101835.01
2023-04-02T16:07:26.648Z,101838.08
2023-04-02T16:10:09.499Z,101841.28
2023-04-02T16:12:42.847Z,101847.31
2023-04-02T16:15:19.947Z,101852.79
2023-04-02T16:17:57.006Z,101853.50
2023-04-02T16:20:34.103Z,101856.05
2023-04-02T16:23:12.277Z,101864.20
2023-04-02T16:25:53.948Z,101860.89
2023-04-02T16:28:32.175Z,101871.73
2023-04-02T16:31:10.043Z,101871.03
2023-04-02T16:33:54.666Z,101874.84
2023-04-02T16:36:36.203Z,101882.02
2023-04-02T16:39:16.189Z,101885.69
2023-04-02T16:42:02.043Z,101888.35
2023-04-02T16:44:46.934Z,101890.45
2023-04-02T16:47:50.362Z,101898.38
2023-04-02T16:50:34.641Z,101904.94
2023-04-02T16:53:19.753Z,101909.80
2023-04-02T16:56:06.671Z,101914.70
2023-04-02T16:58:48.660Z,101918.81
2023-04-02T17:01:29.962Z,101924.10
2023-04-02T17:04:16.792Z,101923.42
2023-04-02T17:06:59.687Z,101932.66
2023-04-02T17:09:42.428Z,101938.94
2023-04-02T17:12:22.031Z,101944.27
2023-04-02T17:14:58.557Z,101944.05
2023-04-02T17:17:30.295Z,101943.02
2023-04-02T17:20:04.203Z,101946.84
2023-04-02T17:22:37.254Z,101952.60
2023-04-02T17:25:19.415Z,101961.40
2023-04-02T17:27:54.477Z,101959.75
2023-04-02T17:30:49.541Z,101958.22
2023-04-02T17:33:25.200Z,101967.92
2023-04-02T17:36:09.268Z,101974.92
2023-04-02T17:38:46.828Z,101973.15
2023-04-02T17:41:24.614Z,101980.95
2023-04-02T17:44:04.593Z,101985.10
2023-04-02T17:46:40.674Z,101993.54
2023-04-02T17:49:23.793Z,101989.73
2023-04-02T17:52:04.857Z,101993.70
2023-04-02T17:54:49.396Z,102003.45
2023-04-02T17:57:32.263Z,102004.95
2023-04-02T18:00:36.137Z,102009.41
2023-04-02T18:03:39.152Z,102009.45
2023-04-02T18:06:20.214Z,102019.86
2023-04-02T18:09:04.085Z,102022.91
2023-04-02T18:11:41.640Z,102029.94
2023-04-02T18:14:28.638Z,102033.76
2023-04-02T18:17:09.652Z,102036.48
2023-04-02T18:19:48.434Z,102044.84
2023-04-02T18:22:24.345Z,102045.38
2023-04-02T18:25:17.614Z,102049.07
2023-04-02T18:28:01.891Z,102052.15
2023-04-02T18:30:40.189Z,102059.02
2023-04-02T18:33:32.358Z,102062.75
2023-04-02T18:36:12.718Z,102064.66
2023-04-02T18:38:48.600Z,102075.10
2023-04-02T18:41:38.809Z,102080.95
2023-04-02T18:44:25.828Z,102084.75
2023-04-02T18:47:02.660Z,102089.21
2023-04-02T18:49:40.065Z,102095.41
2023-04-02T18:52:15.724Z,102098.95
2023-04-02T18:54:50.052Z,102108.34
2023-04-02T18:57:25.646Z,102112.15
2023-04-02T19:00:05.012Z,102121.73
2023-04-02T19:02:42.866Z,102124.05
2023-04-02T19:05:24.618Z,102125.08
2023-04-02T19:08:00.240Z,102133.17
2023-04-02T19:10:35.241Z,102137.21
2023-04-02T19:13:14.272Z,102141.16
2023-04-02T19:16:01.580Z,102147.70
2023-04-02T19:18:45.515Z,102149.30
2023-04-02T19:21:22.535Z,102150.84
2023-04-02T19:24:12.296Z,102154.83
2023-04-02T19:26:50.465Z,102155.77
2023-04-02T19:29:34.637Z,102159.69
2023-04-02T19:32:14.554Z,102165.61
2023-04-02T19:34:52.775Z,102170.46
2023-04-02T19:37:33.747Z,102170.80
2023-04-02T19:40:23.339Z,102181.90
2023-04-02T19:42:55.447Z,102184.48
2023-04-02T19:45:33.467Z,102185.11
2023-04-02T19:48:04.323Z,102188.11
2023-04-02T19:50:34.997Z,102193.61
2023-04-02T19:53:05.391Z,102192.29
2023-04-02T19:55:36.491Z,102193.19
2023-04-02T19:58:18.771Z,102193.43
2023-04-02T20:00:50.667Z,102194.21
2023-04-02T20:03:21.196Z,102194.59
2023-04-02T20:05:51.964Z,102200.18
2023-04-02T20:08:22.784Z,102205.02
2023-04-02T20:10:53.550Z,102208.20
2023-04-02T20:13:24.029Z,102210.08
2023-04-02T20:15:55.002Z,102215.82
2023-04-02T20:18:26.436Z,102214.10
2023-04-02T20:20:57.030Z,102215.45
2023-04-02T20:23:27.938Z,102217.33
2023-04-02T20:25:59.888Z,102225.13
2023-04-02T20:28:31.226Z,102229.80
2023-04-02T20:31:11.256Z,102228.33
2023-04-02T20:33:42.323Z,102230.96
2023-04-02T20:36:15.085Z,102233.45
2023-04-02T20:38:46.412Z,102232.59
2023-04-02T20:41:16.919Z,102236.52
2023-04-02T20:43:47.775Z,102244.36
2023-04-02T20:46:20.033Z,102247.17
2023-04-02T20:48:50.498Z,102248.98
2023-04-02T20:51:21.676Z,102251.59
2023-04-02T20:53:53.695Z,102260.34
2023-04-02T20:56:24.711Z,102261.92
2023-04-02T20:58:55.812Z,102264.02
2023-04-02T21:01:28.553Z,102271.48
2023-04-02T21:04:01.189Z,102272.71
2023-04-02T21:06:34.563Z,102277.06
2023-04-02T21:09:08.505Z,102277.23
2023-04-02T21:11:39.726Z,102281.36
2023-04-02T21:14:10.716Z,102286.04
2023-04-02T21:16:42.468Z,102289.75
2023-04-02T21:19:13.616Z,102292.25
2023-04-02T21:21:44.935Z,102294.26
2023-04-02T21:24:15.518Z,102295.99
2023-04-02T21:26:47.197Z,102297.20
2023-04-02T21:29:20.662Z,102298.70
2023-04-02T21:31:52.431Z,102300.86
2023-04-02T21:34:23.255Z,102303.39
2023-04-02T21:36:53.736Z,102309.40
2023-04-02T21:39:25.844Z,102311.01
2023-04-02T21:41:56.382Z,102309.94
2023-04-02T21:44:27.467Z,102313.88
2023-04-02T21:46:58.410Z,102316.89
2023-04-02T21:49:30.304Z,102321.14
2023-04-02T21:52:01.123Z,102325.27
2023-04-02T21:54:31.851Z,102329.27
2023-04-02T21:57:02.715Z,102328.25
2023-04-02T21:59:33.749Z,102333.23
2023-04-02T22:02:04.812Z,102336.36
2023-04-02T22:04:35.337Z,102337.23
2023-04-02T22:07:06.092Z,102341.60
2023-04-02T22:09:36.848Z,102340.98
2023-04-02T22:12:08.159Z,102349.80
2023-04-02T22:14:39.337Z,102351.39
2023-04-02T22:17:10.329Z,102356.24
2023-04-02T22:19:41.537Z,102358.08
2023-04-02T22:22:12.485Z,102356.53
2023-04-02T22:24:43.441Z,102360.60
2023-04-02T22:27:13.980Z,102357.99
2023-04-02T22:29:44.762Z,102360.96
2023-04-02T22:32:15.708Z,102359.53
2023-04-02T22:34:46.357Z,102360.59
2023-04-02T22:37:17.460Z,102362.18
2023-04-02T22:39:48.677Z,102367.66
2023-04-02T22:42:19.168Z,102370.42
2023-04-02T22:44:49.928Z,102374.44
2023-04-02T22:47:21.077Z,102380.95
2023-04-02T22:49:52.070Z,102383.44
2023-04-02T22:52:22.879Z,102379.39
2023-04-02T22:54:53.970Z,102385.00
2023-04-02T22:57:24.534Z,102382.55
2023-04-02T22:59:55.980Z,102387.66
2023-04-02T23:02:27.076Z,102388.08
2023-04-02T23:04:57.945Z,102388.60
2023-04-02T23:07:28.458Z,102393.05
2023-04-02T23:09:59.264Z,102391.17
2023-04-02T23:12:29.974Z,102385.96
2023-04-02T23:15:02.156Z,102386.98
2023-04-02T23:17:33.055Z,102388.02
2023-04-02T23:20:03.556Z,102388.46
2023-04-02T23:22:34.633Z,102390.73
2023-04-02T23:25:05.786Z,102390.35
2023-04-02T23:27:36.829Z,102392.28
2023-04-02T23:30:09.824Z,102393.58
2023-04-02T23:32:41.726Z,102395.25
2023-04-02T23:35:12.895Z,102400.35
2023-04-02T23:37:43.691Z,102394.23
2023-04-02T23:40:14.471Z,102393.11
2023-04-02T23:42:44.944Z,102387.34
2023-04-02T23:45:16.282Z,102386.80
2023-04-02T23:47:47.136Z,102386.42
2023-04-02T23:50:18.182Z,102387.90
2023-04-02T23:52:48.769Z,102387.08
2023-04-02T23:55:19.602Z,102387.18
2023-04-02T23:57:50.057Z,102392.21
